Time;durP1;ratioP1;P1;durP2;ratioP2;P2;SDS_P1;SDS_P2;PMS_P1;PMS_P2;Temp;Humidity;BMP_temperature;BMP_pressure;BME280_temperature;BME280_humidity;BME280_pressure;Samples;Min_cycle;Max_cycle;Signal;HPM_P1;HPM_P2
2023/09/17 00:02:16;;;;;;;4.03;3.55;;;22.10;64.50;;;;;;5052394;28;20176;-68
2023/09/17 00:04:42;;;;;;;4.47;4.07;;;22.10;64.50;;;;;;5052143;28;20215;-69
2023/09/17 00:07:09;;;;;;;5.13;4.45;;;22.20;64.60;;;;;;5034747;28;20648;-70
2023/09/17 00:09:35;;;;;;;5.13;4.30;;;22.20;65.40;;;;;;5052646;28;20175;-70
2023/09/17 00:12:00;;;;;;;4.32;3.92;;;22.20;64.50;;;;;;5051648;28;20479;-71
2023/09/17 00:14:26;;;;;;;4.70;4.30;;;22.20;64.60;;;;;;5052463;28;20265;-70
2023/09/17 00:16:51;;;;;;;4.47;4.07;;;22.10;64.50;;;;;;5034823;28;20648;-69
2023/09/17 00:19:17;;;;;;;4.53;4.22;;;22.10;64.50;;;;;;5051415;28;20257;-70
2023/09/17 00:21:43;;;;;;;4.40;4.03;;;22.10;64.50;;;;;;5052532;28;20358;-69
2023/09/17 00:24:08;;;;;;;3.97;3.60;;;22.10;64.50;;;;;;5052005;28;20242;-72
2023/09/17 00:26:34;;;;;;;4.57;4.15;;;22.10;64.50;;;;;;5051640;28;20175;-70
2023/09/17 00:29:00;;;;;;;3.88;3.58;;;22.10;64.50;;;;;;5052134;28;20179;-71
2023/09/17 00:31:27;;;;;;;4.00;3.70;;;22.10;64.50;;;;;;5052293;28;20225;-69
2023/09/17 00:33:53;;;;;;;4.15;3.72;;;22.10;64.70;;;;;;5051694;28;20232;-69
2023/09/17 00:36:19;;;;;;;4.75;4.22;;;22.10;64.60;;;;;;5051938;28;20163;-69
2023/09/17 00:38:45;;;;;;;4.20;3.83;;;22.10;64.60;;;;;;5052341;28;20588;-69
2023/09/17 00:41:11;;;;;;;4.05;3.75;;;22.10;64.50;;;;;;5051254;28;20250;-71
2023/09/17 00:43:36;;;;;;;4.55;4.07;;;22.10;64.60;;;;;;5052100;28;20215;-69
2023/09/17 00:46:02;;;;;;;3.63;3.40;;;22.10;64.60;;;;;;5051966;28;20549;-69
2023/09/17 00:48:27;;;;;;;4.43;4.03;;;22.10;64.60;;;;;;5051356;28;20179;-70
2023/09/17 00:50:53;;;;;;;6.82;4.30;;;22.10;64.50;;;;;;5051234;28;20175;-69
2023/09/17 00:53:19;;;;;;;4.40;3.90;;;22.00;65.30;;;;;;5033579;28;20186;-70
2023/09/17 00:55:44;;;;;;;4.00;3.58;;;22.10;64.60;;;;;;5017001;28;20175;-69
2023/09/17 00:58:10;;;;;;;3.97;3.67;;;22.00;64.50;;;;;;5034170;28;20274;-70
2023/09/17 01:00:38;;;;;;;3.85;3.55;;;22.10;64.60;;;;;;5050820;28;20270;-69
2023/09/17 01:03:07;;;;;;;5.07;4.18;;;22.10;64.70;;;;;;5033840;28;20183;-69
2023/09/17 01:05:39;;;;;;;4.10;3.78;;;22.10;64.60;;;;;;5034139;28;20644;-68
2023/09/17 01:08:06;;;;;;;4.65;4.25;;;22.10;64.50;;;;;;5035821;28;20182;-69
2023/09/17 01:10:35;;;;;;;3.90;3.60;;;22.10;64.70;;;;;;5055516;28;20183;-71
2023/09/17 01:13:01;;;;;;;4.60;4.20;;;22.10;64.60;;;;;;5038254;28;20625;-72
2023/09/17 01:15:27;;;;;;;5.03;4.10;;;22.10;64.50;;;;;;5054919;28;20175;-70
2023/09/17 01:17:54;;;;;;;4.78;4.32;;;22.00;64.60;;;;;;5056029;28;20177;-70
2023/09/17 01:20:29;;;;;;;4.25;3.95;;;22.00;64.50;;;;;;5037469;28;20717;-69
2023/09/17 01:22:59;;;;;;;4.47;4.07;;;22.10;64.70;;;;;;5038365;28;20190;-71
2023/09/17 01:26:07;;;;;;;4.47;4.00;;;22.10;64.50;;;;;;5055563;28;20195;-70
2023/09/17 01:28:32;;;;;;;4.20;3.58;;;22.00;64.50;;;;;;5055492;28;20270;-69
2023/09/17 01:30:58;;;;;;;3.42;3.15;;;22.10;64.80;;;;;;5054747;28;20258;-69
2023/09/17 01:33:24;;;;;;;5.18;4.72;;;22.00;64.60;;;;;;5055428;28;20183;-69
2023/09/17 01:36:11;;;;;;;4.47;4.07;;;22.00;64.60;;;;;;5054737;28;20173;-68
2023/09/17 01:38:47;;;;;;;4.13;3.83;;;22.00;64.70;;;;;;5037715;28;20226;-69
2023/09/17 01:41:13;;;;;;;4.25;3.90;;;22.00;64.70;;;;;;5020472;28;20181;-69
2023/09/17 01:43:40;;;;;;;4.60;3.90;;;22.00;64.70;;;;;;5020438;28;20214;-69
2023/09/17 01:46:06;;;;;;;4.03;3.72;;;22.00;64.70;;;;;;5037443;28;20254;-69
2023/09/17 01:48:32;;;;;;;4.40;4.10;;;22.00;64.80;;;;;;5037286;28;20265;-68
2023/09/17 01:50:57;;;;;;;4.00;3.70;;;22.00;64.80;;;;;;5054138;28;20241;-70
2023/09/17 01:53:23;;;;;;;4.22;3.83;;;22.00;64.70;;;;;;5037325;28;20205;-70
2023/09/17 01:55:56;;;;;;;4.60;4.20;;;22.00;64.80;;;;;;5037041;28;20178;-71
2023/09/17 01:58:22;;;;;;;4.82;4.35;;;21.90;64.80;;;;;;5054042;28;20203;-70
2023/09/17 02:00:49;;;;;;;4.53;4.13;;;22.00;64.80;;;;;;5054881;28;20183;-68
2023/09/17 02:03:14;;;;;;;4.50;4.10;;;22.00;64.80;;;;;;5054241;28;20537;-68
2023/09/17 02:05:40;;;;;;;4.35;3.67;;;22.00;64.80;;;;;;5054114;28;20186;-68
2023/09/17 02:08:06;;;;;;;4.43;4.03;;;22.00;64.90;;;;;;5054308;28;20174;-70
2023/09/17 02:10:31;;;;;;;4.38;3.97;;;22.00;64.90;;;;;;5054758;28;20393;-70
2023/09/17 02:12:57;;;;;;;4.28;3.90;;;22.00;64.90;;;;;;5053944;28;20178;-71
2023/09/17 02:15:22;;;;;;;4.10;3.80;;;22.10;65.00;;;;;;5054620;28;20597;-69
2023/09/17 02:17:51;;;;;;;4.57;4.18;;;22.00;65.00;;;;;;5053573;28;20178;-69
2023/09/17 02:20:17;;;;;;;3.88;3.58;;;22.00;65.00;;;;;;5053349;28;20183;-69
2023/09/17 02:22:42;;;;;;;4.22;3.72;;;22.00;65.00;;;;;;5054762;28;20517;-70
2023/09/17 02:25:08;;;;;;;4.40;4.00;;;22.00;65.00;;;;;;5053639;28;20960;-70
2023/09/17 02:27:34;;;;;;;4.50;4.10;;;22.00;65.00;;;;;;5053851;28;20629;-69
2023/09/17 02:30:00;;;;;;;4.80;4.40;;;21.90;65.00;;;;;;5054096;28;20186;-68
2023/09/17 02:32:26;;;;;;;3.88;3.58;;;22.00;65.10;;;;;;5053574;28;20637;-69
2023/09/17 02:34:51;;;;;;;4.50;4.20;;;21.90;65.00;;;;;;5054562;28;20209;-69
2023/09/17 02:37:17;;;;;;;4.00;3.70;;;22.00;65.00;;;;;;5053490;28;20219;-69
2023/09/17 02:39:43;;;;;;;4.22;3.83;;;21.90;64.90;;;;;;5053467;28;20647;-70
2023/09/17 02:42:09;;;;;;;4.05;3.75;;;21.90;65.00;;;;;;5053948;28;20175;-70
2023/09/17 02:44:34;;;;;;;4.25;3.85;;;21.90;65.00;;;;;;5054031;28;20234;-69
2023/09/17 02:47:00;;;;;;;4.95;4.55;;;21.90;65.10;;;;;;5052626;28;20578;-71
2023/09/17 02:49:27;;;;;;;4.15;3.75;;;21.90;65.00;;;;;;5053891;28;20636;-68
2023/09/17 02:51:52;;;;;;;4.55;3.97;;;21.90;65.10;;;;;;5054097;28;20195;-70
2023/09/17 02:54:18;;;;;;;4.47;4.07;;;21.90;65.00;;;;;;5052709;28;20217;-70
2023/09/17 02:56:43;;;;;;;4.35;4.05;;;21.90;65.00;;;;;;5053652;28;20217;-69
2023/09/17 02:59:09;;;;;;;4.07;3.67;;;21.90;65.00;;;;;;5053245;28;20175;-70
2023/09/17 03:01:35;;;;;;;4.22;3.92;;;21.90;65.00;;;;;;5052992;28;20171;-68
2023/09/17 03:04:01;;;;;;;4.35;3.95;;;21.90;65.00;;;;;;5053508;28;20213;-69
2023/09/17 03:06:26;;;;;;;4.03;3.72;;;21.90;65.10;;;;;;5053105;28;20577;-67
2023/09/17 03:08:52;;;;;;;4.07;3.67;;;22.00;65.20;;;;;;5052893;28;20179;-70
2023/09/17 03:11:18;;;;;;;3.42;3.22;;;21.90;65.10;;;;;;5035411;28;20633;-70
2023/09/17 03:13:44;;;;;;;4.13;3.80;;;21.90;65.10;;;;;;5053506;28;20171;-70
2023/09/17 03:16:12;;;;;;;4.05;3.75;;;21.90;65.10;;;;;;5052171;28;20171;-71
2023/09/17 03:18:38;;;;;;;3.80;3.50;;;21.90;65.00;;;;;;5053069;28;20660;-69
2023/09/17 03:21:07;;;;;;;4.25;3.88;;;21.90;65.10;;;;;;5052787;28;20276;-71
2023/09/17 03:23:33;;;;;;;4.03;3.72;;;21.90;65.10;;;;;;5053326;28;20213;-69
2023/09/17 03:26:01;;;;;;;4.65;4.15;;;21.90;65.10;;;;;;5052857;28;20175;-69
2023/09/17 03:28:27;;;;;;;4.95;4.10;;;21.90;65.10;;;;;;5032611;28;20187;-70
2023/09/17 03:30:53;;;;;;;3.90;3.60;;;21.90;65.10;;;;;;5033137;28;20207;-68
2023/09/17 03:33:19;;;;;;;4.10;3.80;;;21.90;65.10;;;;;;5032835;28;20627;-69
2023/09/17 03:35:46;;;;;;;4.45;4.05;;;21.90;65.20;;;;;;5032679;28;20172;-70
2023/09/17 03:38:11;;;;;;;4.10;3.80;;;21.90;65.20;;;;;;5050089;28;20214;-71
2023/09/17 03:40:38;;;;;;;3.63;3.38;;;21.80;65.10;;;;;;5052890;28;20179;-69
2023/09/17 03:43:03;;;;;;;4.03;3.72;;;21.90;65.10;;;;;;5051913;28;20360;-70
2023/09/17 03:45:29;;;;;;;3.58;3.28;;;21.90;65.10;;;;;;5052862;28;20183;-69
2023/09/17 03:47:54;;;;;;;3.70;3.40;;;21.90;65.20;;;;;;5018449;28;20171;-68
2023/09/17 03:50:20;;;;;;;4.32;4.03;;;21.80;65.10;;;;;;5051769;28;20254;-69
2023/09/17 03:52:47;;;;;;;4.07;3.78;;;21.80;65.10;;;;;;5053040;28;20270;-70
2023/09/17 03:55:13;;;;;;;3.40;3.17;;;21.90;65.20;;;;;;5018132;28;20171;-70
2023/09/17 03:57:38;;;;;;;4.03;3.55;;;21.80;65.20;;;;;;5017934;28;20651;-69
2023/09/17 04:00:10;;;;;;;4.15;3.75;;;21.90;65.20;;;;;;5034588;28;20701;-69
2023/09/17 04:02:36;;;;;;;3.83;3.53;;;21.80;65.10;;;;;;5052834;28;20190;-69
2023/09/17 04:05:12;;;;;;;3.90;3.60;;;21.80;65.20;;;;;;5051261;28;20253;-69
2023/09/17 04:07:38;;;;;;;3.50;3.20;;;21.80;65.10;;;;;;5052473;28;20292;-69
2023/09/17 04:10:06;;;;;;;4.07;3.78;;;21.80;65.10;;;;;;5052376;28;20175;-71
2023/09/17 04:12:38;;;;;;;3.85;3.55;;;21.80;65.20;;;;;;5051748;28;20233;-70
2023/09/17 04:15:12;;;;;;;3.60;3.30;;;21.80;65.20;;;;;;5052145;28;20176;-71
2023/09/17 04:17:37;;;;;;;3.92;3.63;;;21.80;65.20;;;;;;5051728;28;20659;-69
2023/09/17 04:20:09;;;;;;;3.75;3.45;;;21.80;65.20;;;;;;5052279;28;20170;-70
2023/09/17 04:22:35;;;;;;;3.83;3.53;;;21.80;65.20;;;;;;5052416;28;20175;-71
2023/09/17 04:25:00;;;;;;;4.18;3.88;;;21.80;65.30;;;;;;5051272;28;20232;-70
2023/09/17 04:27:26;;;;;;;4.22;3.78;;;21.80;65.20;;;;;;5051829;28;20178;-70
2023/09/17 04:29:52;;;;;;;4.13;3.83;;;21.80;65.20;;;;;;5052625;28;20178;-70
2023/09/17 04:32:18;;;;;;;4.22;3.92;;;21.80;65.20;;;;;;5051424;28;20534;-69
2023/09/17 04:34:43;;;;;;;3.78;3.47;;;21.80;65.20;;;;;;5052488;28;20217;-69
2023/09/17 04:37:10;;;;;;;3.88;3.58;;;21.80;65.20;;;;;;5051113;28;20348;-70
2023/09/17 04:39:35;;;;;;;4.13;3.70;;;21.80;65.20;;;;;;5051531;28;20187;-69
2023/09/17 04:42:01;;;;;;;4.13;3.83;;;21.80;65.30;;;;;;5052752;28;20194;-72
2023/09/17 04:44:28;;;;;;;3.60;3.30;;;21.80;65.30;;;;;;5056420;28;20215;-69
2023/09/17 04:46:54;;;;;;;3.72;3.42;;;21.80;65.40;;;;;;5055440;28;20266;-70
2023/09/17 04:49:19;;;;;;;3.53;3.30;;;21.80;65.40;;;;;;5055835;28;20611;-69
2023/09/17 04:51:45;;;;;;;3.95;3.65;;;22.00;65.50;;;;;;5056256;28;20181;-69
2023/09/17 04:54:10;;;;;;;3.80;3.40;;;21.80;65.30;;;;;;5055056;28;20265;-71
2023/09/17 04:56:37;;;;;;;3.58;3.28;;;21.80;65.30;;;;;;5055705;28;20527;-69
2023/09/17 04:59:03;;;;;;;3.80;3.50;;;21.80;65.30;;;;;;5055908;28;20289;-72
2023/09/17 05:01:29;;;;;;;4.30;3.90;;;21.80;65.30;;;;;;5055451;28;20181;-69
2023/09/17 05:03:54;;;;;;;4.03;3.55;;;21.80;65.50;;;;;;5038223;28;20211;-69
2023/09/17 05:06:20;;;;;;;4.10;3.70;;;21.80;65.40;;;;;;5055353;28;20183;-69
2023/09/17 05:08:46;;;;;;;3.72;3.42;;;21.80;65.50;;;;;;5055146;28;20183;-69
2023/09/17 05:11:11;;;;;;;4.15;3.75;;;21.70;65.40;;;;;;5055785;28;20665;-72
2023/09/17 05:13:37;;;;;;;3.78;3.47;;;21.80;65.50;;;;;;5055621;28;20584;-71
2023/09/17 05:16:03;;;;;;;3.92;3.53;;;21.80;65.50;;;;;;5054776;28;20175;-70
2023/09/17 05:18:29;;;;;;;3.95;3.63;;;21.70;65.40;;;;;;5055720;28;20228;-70
2023/09/17 05:20:54;;;;;;;3.83;3.53;;;21.80;65.50;;;;;;5054802;28;20175;-71
2023/09/17 05:23:21;;;;;;;4.28;3.88;;;21.80;65.50;;;;;;5055269;28;20186;-70
2023/09/17 05:25:46;;;;;;;3.80;3.50;;;21.70;65.40;;;;;;5055484;28;20182;-69
2023/09/17 05:28:12;;;;;;;3.58;3.33;;;21.70;65.40;;;;;;5054397;28;20535;-70
2023/09/17 05:30:37;;;;;;;4.15;3.75;;;21.70;65.40;;;;;;5055614;28;20533;-69
2023/09/17 05:33:06;;;;;;;3.90;3.60;;;21.70;65.50;;;;;;5054705;28;20514;-69
2023/09/17 05:35:32;;;;;;;3.58;3.30;;;21.70;65.50;;;;;;5054750;28;20207;-69
2023/09/17 05:37:58;;;;;;;4.15;3.85;;;21.80;65.60;;;;;;5020809;28;20235;-71
2023/09/17 05:40:23;;;;;;;3.50;3.30;;;21.70;65.50;;;;;;5055630;28;20217;-69
2023/09/17 05:42:49;;;;;;;3.70;3.40;;;21.70;65.50;;;;;;5054661;28;20175;-71
2023/09/17 05:45:15;;;;;;;3.65;3.35;;;21.70;65.50;;;;;;5054993;28;20292;-69
2023/09/17 05:47:41;;;;;;;3.90;3.60;;;21.70;65.50;;;;;;5055415;28;20171;-70
2023/09/17 05:50:08;;;;;;;3.78;3.47;;;21.70;65.60;;;;;;5054267;28;20183;-71
2023/09/17 05:52:34;;;;;;;3.58;3.25;;;21.70;65.50;;;;;;5054836;28;20202;-70
2023/09/17 05:55:00;;;;;;;3.78;3.47;;;21.70;65.50;;;;;;5054883;28;20622;-72
2023/09/17 05:57:26;;;;;;;4.18;3.42;;;21.70;65.60;;;;;;5054447;28;20214;-69
2023/09/17 05:59:52;;;;;;;4.05;3.75;;;21.70;65.60;;;;;;5055046;28;20579;-69
2023/09/17 06:02:17;;;;;;;3.65;3.35;;;21.70;65.60;;;;;;5054188;28;20182;-68
2023/09/17 06:04:43;;;;;;;3.80;3.50;;;21.60;65.50;;;;;;5036179;28;20253;-68
2023/09/17 06:07:08;;;;;;;3.50;3.25;;;21.70;65.60;;;;;;5054377;28;20209;-69
2023/09/17 06:09:34;;;;;;;3.88;3.47;;;21.70;65.60;;;;;;5054669;28;20546;-69
2023/09/17 06:11:59;;;;;;;3.83;3.53;;;21.70;65.60;;;;;;5053331;28;20179;-71
2023/09/17 06:14:25;;;;;;;4.18;3.80;;;21.70;65.70;;;;;;5054517;28;20179;-69
2023/09/17 06:16:50;;;;;;;3.15;2.95;;;21.70;65.70;;;;;;5054670;28;20179;-68
2023/09/17 06:19:16;;;;;;;3.67;3.38;;;21.70;65.60;;;;;;5053510;28;20174;-69
2023/09/17 06:21:42;;;;;;;4.20;3.80;;;21.70;65.70;;;;;;5054208;28;20185;-68
2023/09/17 06:24:08;;;;;;;3.45;3.15;;;21.70;65.60;;;;;;5053681;28;20215;-69
2023/09/17 06:26:35;;;;;;;3.47;3.28;;;21.70;65.60;;;;;;5054522;28;20217;-69
2023/09/17 06:29:00;;;;;;;4.05;3.47;;;21.70;65.50;;;;;;5054065;28;20248;-69
2023/09/17 06:31:26;;;;;;;4.18;3.78;;;21.70;65.60;;;;;;5053455;28;20645;-68
2023/09/17 06:33:53;;;;;;;3.70;3.40;;;21.70;65.60;;;;;;5036464;28;20522;-67
2023/09/17 06:36:18;;;;;;;3.58;3.17;;;21.70;65.60;;;;;;5053677;28;20249;-68
2023/09/17 06:38:44;;;;;;;3.80;3.50;;;21.70;65.60;;;;;;5035991;28;20263;-69
2023/09/17 06:41:09;;;;;;;4.00;3.70;;;21.70;65.60;;;;;;5035959;28;20262;-69
2023/09/17 06:43:35;;;;;;;3.92;3.58;;;21.70;65.70;;;;;;5054027;28;20203;-68
2023/09/17 06:46:01;;;;;;;3.80;3.38;;;21.70;65.80;;;;;;5053110;28;20178;-67
2023/09/17 06:48:27;;;;;;;3.30;3.00;;;21.70;66.70;;;;;;5036344;28;20185;-67
2023/09/17 06:50:52;;;;;;;3.75;3.45;;;21.70;66.00;;;;;;5053673;28;20179;-68
2023/09/17 06:53:18;;;;;;;3.40;3.15;;;21.70;66.00;;;;;;5053009;28;20198;-67
2023/09/17 06:55:44;;;;;;;3.40;3.10;;;21.70;66.10;;;;;;5054100;28;20548;-68
2023/09/17 06:58:09;;;;;;;3.55;3.25;;;21.70;66.20;;;;;;5019506;28;20178;-68
2023/09/17 07:00:35;;;;;;;3.63;3.30;;;21.70;66.10;;;;;;5052967;28;20196;-67
2023/09/17 07:03:02;;;;;;;3.65;3.35;;;21.70;66.20;;;;;;5053070;28;20179;-67
2023/09/17 07:05:27;;;;;;;3.17;2.97;;;21.70;66.10;;;;;;5052851;28;20768;-66
2023/09/17 07:07:53;;;;;;;3.97;3.33;;;21.70;66.10;;;;;;5053108;28;20198;-68
2023/09/17 07:10:19;;;;;;;3.45;3.15;;;21.70;66.20;;;;;;5053094;28;20696;-67
2023/09/17 07:12:44;;;;;;;3.50;3.22;;;21.70;66.10;;;;;;5053348;28;20266;-69
2023/09/17 07:15:11;;;;;;;3.80;3.42;;;21.70;66.20;;;;;;5052605;28;20209;-69
2023/09/17 07:17:38;;;;;;;3.60;3.30;;;21.70;66.20;;;;;;5053282;28;20172;-68
2023/09/17 07:20:05;;;;;;;3.60;3.30;;;21.70;66.00;;;;;;5053248;28;20183;-69
2023/09/17 07:22:31;;;;;;;3.28;2.97;;;21.70;66.20;;;;;;5052391;28;20262;-68
2023/09/17 07:24:58;;;;;;;2.97;2.78;;;21.70;66.20;;;;;;5053052;28;20306;-69
2023/09/17 07:27:28;;;;;;;3.67;3.30;;;21.70;66.10;;;;;;5052542;28;20187;-68
2023/09/17 07:29:54;;;;;;;3.63;3.33;;;21.70;66.20;;;;;;5053327;28;20182;-68
2023/09/17 07:32:20;;;;;;;3.20;3.00;;;21.70;66.20;;;;;;5052119;28;20182;-68
2023/09/17 07:34:45;;;;;;;3.00;2.80;;;21.70;66.20;;;;;;5052678;28;20190;-68
2023/09/17 07:37:11;;;;;;;3.55;3.30;;;21.70;66.20;;;;;;5052619;28;20341;-69
2023/09/17 07:39:38;;;;;;;3.40;3.10;;;21.70;66.30;;;;;;5053041;28;20183;-69
2023/09/17 07:42:04;;;;;;;4.53;3.38;;;21.70;66.20;;;;;;5051498;28;20538;-69
2023/09/17 07:44:29;;;;;;;4.28;3.28;;;21.70;66.20;;;;;;5052781;28;20665;-68
2023/09/17 07:46:55;;;;;;;3.35;3.05;;;21.70;66.30;;;;;;5052792;28;20186;-68
2023/09/17 07:49:26;;;;;;;3.10;2.80;;;21.70;66.20;;;;;;5051926;28;20179;-68
2023/09/17 07:51:52;;;;;;;3.03;2.83;;;21.70;66.20;;;;;;5052960;28;20175;-70
2023/09/17 07:54:17;;;;;;;3.38;3.08;;;21.70;66.20;;;;;;5052567;28;20545;-69
2023/09/17 07:56:43;;;;;;;3.42;3.22;;;21.70;66.30;;;;;;5052218;28;20521;-68
2023/09/17 07:59:09;;;;;;;3.40;3.10;;;21.70;66.20;;;;;;5052552;28;20225;-68
2023/09/17 08:01:35;;;;;;;3.20;2.90;;;21.70;66.30;;;;;;5052334;28;20242;-67
2023/09/17 08:04:00;;;;;;;3.30;3.00;;;21.60;66.20;;;;;;5051791;28;20727;-67
2023/09/17 08:06:26;;;;;;;3.25;2.97;;;21.70;66.30;;;;;;5052474;28;20179;-67
2023/09/17 08:08:52;;;;;;;3.35;2.97;;;21.60;66.20;;;;;;5052738;28;20234;-69
2023/09/17 08:11:19;;;;;;;3.30;3.00;;;21.60;66.20;;;;;;5051246;28;20267;-68
2023/09/17 08:13:44;;;;;;;3.42;3.10;;;21.70;66.30;;;;;;5052498;28;20214;-69
2023/09/17 08:16:10;;;;;;;3.22;2.92;;;21.70;66.30;;;;;;5051895;28;20634;-69
2023/09/17 08:18:35;;;;;;;3.78;3.40;;;21.70;66.30;;;;;;5051404;28;20210;-68
2023/09/17 08:21:01;;;;;;;3.20;2.90;;;21.60;66.20;;;;;;5052103;28;20699;-68
2023/09/17 08:23:27;;;;;;;3.38;3.08;;;21.70;66.30;;;;;;5052552;28;20174;-68
2023/09/17 08:25:52;;;;;;;3.05;2.80;;;21.70;67.10;;;;;;5051854;28;20178;-68
2023/09/17 08:28:22;;;;;;;2.78;2.58;;;21.70;66.30;;;;;;5052058;28;20175;-67
2023/09/17 08:30:48;;;;;;;3.00;2.80;;;21.60;66.20;;;;;;5051656;28;20565;-67
2023/09/17 08:33:15;;;;;;;3.10;2.90;;;21.70;66.30;;;;;;5051937;28;20183;-68
2023/09/17 08:35:40;;;;;;;3.17;2.97;;;21.70;66.40;;;;;;5052539;28;20183;-67
2023/09/17 08:38:06;;;;;;;3.20;3.00;;;21.60;66.30;;;;;;5016982;28;20230;-68
2023/09/17 08:40:33;;;;;;;3.97;2.97;;;21.70;66.30;;;;;;5052293;28;20182;-68
2023/09/17 08:42:59;;;;;;;3.25;3.03;;;21.70;66.30;;;;;;5034014;28;20229;-68
2023/09/17 08:45:24;;;;;;;3.33;3.03;;;21.60;66.20;;;;;;5033704;28;20607;-68
2023/09/17 08:47:50;;;;;;;3.08;2.88;;;21.70;66.20;;;;;;5052530;28;20719;-68
2023/09/17 08:50:16;;;;;;;3.33;3.13;;;21.70;66.20;;;;;;5052008;28;20639;-68
2023/09/17 08:52:42;;;;;;;3.53;2.97;;;21.70;66.20;;;;;;5033402;28;20171;-68
2023/09/17 08:55:09;;;;;;;3.30;3.10;;;21.70;66.20;;;;;;5034484;28;20246;-68
2023/09/17 08:57:37;;;;;;;3.40;3.10;;;21.70;66.20;;;;;;5052078;28;20179;-68
2023/09/17 09:00:10;;;;;;;3.40;3.20;;;21.60;66.20;;;;;;5033497;28;20198;-69
2023/09/17 09:02:58;;;;;;;3.22;2.92;;;21.60;66.20;;;;;;5051954;28;20183;-67
2023/09/17 09:05:25;;;;;;;3.40;3.08;;;21.70;66.30;;;;;;5018155;28;20310;-67
2023/09/17 09:07:51;;;;;;;3.20;3.00;;;21.60;66.20;;;;;;5051486;28;20179;-68
2023/09/17 09:10:17;;;;;;;3.45;3.15;;;21.70;66.40;;;;;;5051719;28;20183;-68
2023/09/17 09:12:42;;;;;;;3.65;3.35;;;21.70;66.30;;;;;;5034424;28;20174;-69
2023/09/17 09:15:10;;;;;;;3.25;2.95;;;21.70;66.30;;;;;;5033388;28;20179;-69
2023/09/17 09:17:35;;;;;;;3.33;3.13;;;21.70;66.30;;;;;;5052102;28;20176;-68
2023/09/17 09:20:03;;;;;;;3.30;3.00;;;21.70;66.30;;;;;;5051102;28;20182;-68
2023/09/17 09:22:29;;;;;;;3.38;3.15;;;21.70;66.20;;;;;;5018061;28;20189;-68
2023/09/17 09:24:54;;;;;;;3.20;3.00;;;21.70;66.30;;;;;;5051678;28;20211;-70
2023/09/17 09:27:20;;;;;;;3.85;3.50;;;21.70;66.30;;;;;;5051096;28;20585;-67
2023/09/17 09:29:45;;;;;;;3.30;3.00;;;21.70;66.30;;;;;;5055214;28;20179;-68
2023/09/17 09:32:11;;;;;;;3.80;3.50;;;21.70;66.30;;;;;;5037148;28;20656;-68
2023/09/17 09:34:40;;;;;;;3.67;3.35;;;21.70;66.20;;;;;;5054761;28;20175;-67
2023/09/17 09:37:06;;;;;;;3.65;3.35;;;21.70;66.40;;;;;;5037226;28;20222;-70
2023/09/17 09:39:34;;;;;;;3.40;3.10;;;21.70;66.40;;;;;;5055232;28;20179;-68
2023/09/17 09:42:00;;;;;;;3.40;3.10;;;21.70;66.50;;;;;;5053940;28;20241;-68
2023/09/17 09:44:26;;;;;;;3.75;3.40;;;21.70;66.50;;;;;;5021084;28;20211;-69
2023/09/17 09:47:02;;;;;;;3.50;3.20;;;21.70;66.40;;;;;;5055410;28;20171;-67
2023/09/17 09:49:28;;;;;;;4.75;3.55;;;21.70;66.50;;;;;;5054446;28;20228;-68
2023/09/17 09:51:57;;;;;;;4.90;3.90;;;21.80;66.60;;;;;;5054239;28;20180;-70
2023/09/17 09:54:22;;;;;;;4.43;3.55;;;21.80;66.70;;;;;;5055214;28;20207;-69
2023/09/17 09:56:48;;;;;;;5.55;3.55;;;21.80;66.80;;;;;;5054287;28;20206;-70
2023/09/17 09:59:14;;;;;;;6.57;4.10;;;21.70;66.90;;;;;;5036633;28;20175;-69
2023/09/17 10:01:40;;;;;;;8.05;5.32;;;21.80;67.50;;;;;;5036961;28;20175;-67
2023/09/17 10:04:11;;;;;;;12.45;5.82;;;21.80;67.90;;;;;;5035796;28;20256;-68
2023/09/17 10:06:38;;;;;;;8.13;4.65;;;21.80;67.80;;;;;;5037069;28;20175;-68
2023/09/17 10:09:03;;;;;;;12.07;5.60;;;21.80;68.20;;;;;;5036223;28;20189;-71
2023/09/17 10:11:30;;;;;;;10.65;6.50;;;21.80;69.10;;;;;;5036821;28;20171;-71
2023/09/17 10:14:04;;;;;;;8.43;5.20;;;21.80;69.20;;;;;;5037212;28;20179;-71
2023/09/17 10:16:30;;;;;;;8.25;5.90;;;21.90;69.40;;;;;;5053970;28;20247;-72
2023/09/17 10:18:56;;;;;;;11.10;5.35;;;21.90;69.40;;;;;;5054488;28;20182;-71
2023/09/17 10:21:22;;;;;;;7.60;5.70;;;22.00;69.50;;;;;;5019953;28;20166;-67
2023/09/17 10:23:47;;;;;;;12.07;5.45;;;22.00;69.50;;;;;;5019290;28;20289;-68
2023/09/17 10:26:13;;;;;;;7.75;5.72;;;22.00;69.50;;;;;;5036493;28;20179;-68
2023/09/17 10:28:38;;;;;;;7.90;6.07;;;22.00;69.40;;;;;;5054613;28;20182;-68
2023/09/17 10:31:04;;;;;;;8.15;5.57;;;22.00;70.30;;;;;;5019097;28;20183;-69
2023/09/17 10:33:31;;;;;;;6.93;5.13;;;22.00;69.50;;;;;;5035605;28;20190;-67
2023/09/17 10:35:57;;;;;;;9.25;6.15;;;21.90;69.40;;;;;;5035654;28;20254;-67
2023/09/17 10:38:23;;;;;;;10.27;6.28;;;22.00;69.50;;;;;;5018603;28;20310;-67
2023/09/17 10:40:50;;;;;;;8.50;6.07;;;22.00;69.60;;;;;;5019480;28;20384;-68
2023/09/17 10:43:15;;;;;;;13.25;6.50;;;22.00;69.60;;;;;;5019782;28;20254;-69
2023/09/17 10:45:41;;;;;;;8.10;6.30;;;22.00;69.60;;;;;;5018979;28;20302;-67
2023/09/17 10:48:07;;;;;;;7.90;6.88;;;22.00;69.60;;;;;;5036130;28;20167;-68
2023/09/17 10:50:35;;;;;;;9.77;6.25;;;22.00;69.80;;;;;;5019652;28;20612;-67
2023/09/17 10:53:00;;;;;;;10.02;7.28;;;22.00;69.50;;;;;;5053220;28;20179;-69
2023/09/17 10:55:26;;;;;;;16.58;7.85;;;22.00;69.40;;;;;;5053723;28;20258;-67
2023/09/17 10:58:15;;;;;;;11.43;6.70;;;22.00;69.50;;;;;;5019864;28;20624;-70
2023/09/17 11:00:42;;;;;;;17.38;8.57;;;22.00;69.50;;;;;;5022081;28;20171;-68
2023/09/17 11:03:08;;;;;;;9.60;6.90;;;22.00;70.00;;;;;;5019771;28;20191;-66
2023/09/17 11:05:34;;;;;;;11.05;7.43;;;22.00;69.70;;;;;;5052712;28;20219;-66
2023/09/17 11:08:02;;;;;;;12.45;7.90;;;22.00;69.60;;;;;;5053168;28;20219;-68
2023/09/17 11:10:27;;;;;;;9.43;6.97;;;22.00;69.50;;;;;;5019461;28;20595;-67
2023/09/17 11:12:53;;;;;;;14.10;7.07;;;22.00;69.30;;;;;;5053057;28;20199;-68
2023/09/17 11:15:19;;;;;;;11.25;7.00;;;22.00;69.10;;;;;;5052898;28;20261;-67
2023/09/17 11:17:46;;;;;;;12.30;7.47;;;22.00;69.10;;;;;;5035875;28;20167;-67
2023/09/17 11:20:12;;;;;;;9.50;7.78;;;22.00;69.20;;;;;;5052569;28;20179;-67
2023/09/17 11:22:38;;;;;;;8.15;6.88;;;22.00;69.20;;;;;;5035638;28;20171;-68
2023/09/17 11:25:04;;;;;;;10.43;6.50;;;22.00;69.30;;;;;;5035062;28;20264;-68
2023/09/17 11:27:51;;;;;;;8.70;6.80;;;22.00;69.00;;;;;;5052709;28;20634;-67
2023/09/17 11:30:18;;;;;;;10.23;6.78;;;22.10;69.00;;;;;;5052882;28;20171;-66
2023/09/17 11:32:53;;;;;;;10.07;6.88;;;22.10;68.80;;;;;;5053470;28;20178;-67
2023/09/17 11:35:22;;;;;;;10.15;6.40;;;22.10;68.80;;;;;;5052202;28;20186;-67
2023/09/17 11:37:48;;;;;;;8.52;6.82;;;22.10;68.80;;;;;;5035078;28;20215;-68
2023/09/17 11:40:15;;;;;;;10.85;6.50;;;22.10;68.70;;;;;;5052653;28;20190;-67
2023/09/17 11:42:42;;;;;;;10.75;7.10;;;22.10;68.70;;;;;;5052594;28;20179;-68
2023/09/17 11:45:10;;;;;;;9.05;6.88;;;22.10;68.60;;;;;;5035326;28;20218;-68
2023/09/17 11:47:36;;;;;;;7.63;6.53;;;22.10;68.70;;;;;;5052239;28;20312;-67
2023/09/17 11:50:03;;;;;;;9.63;6.53;;;22.10;68.80;;;;;;5018537;28;20257;-67
2023/09/17 11:52:29;;;;;;;7.30;6.30;;;22.10;68.80;;;;;;5035028;28;20305;-67
2023/09/17 11:55:01;;;;;;;8.18;5.72;;;22.00;68.80;;;;;;5051898;28;20269;-68
2023/09/17 11:57:26;;;;;;;8.95;6.30;;;22.00;68.80;;;;;;5052712;28;20167;-68
2023/09/17 11:59:53;;;;;;;8.98;6.28;;;22.00;68.80;;;;;;5052391;28;20190;-67
2023/09/17 12:02:19;;;;;;;10.20;6.72;;;22.10;68.80;;;;;;5052077;28;20555;-66
2023/09/17 12:04:44;;;;;;;9.07;6.00;;;22.10;68.70;;;;;;5018815;28;20203;-68
2023/09/17 12:07:11;;;;;;;9.15;6.32;;;22.10;68.70;;;;;;5018405;28;20221;-68
2023/09/17 12:12:13;;;;;;;6.50;5.78;;;22.10;68.70;;;;;;5036186;28;20167;-68
2023/09/17 12:14:39;;;;;;;12.30;6.65;;;22.10;68.70;;;;;;5052831;28;20297;-69
2023/09/17 12:17:05;;;;;;;6.40;5.80;;;22.10;68.70;;;;;;5033945;28;20187;-68
2023/09/17 12:19:30;;;;;;;7.28;6.57;;;22.10;68.80;;;;;;5034752;28;20175;-67
2023/09/17 12:21:59;;;;;;;7.18;6.35;;;22.00;68.70;;;;;;5034638;28;20179;-67
2023/09/17 12:24:34;;;;;;;6.88;5.97;;;22.00;68.70;;;;;;5034493;28;20215;-68
2023/09/17 12:29:32;;;;;;;7.35;6.22;;;22.00;68.70;;;;;;5052676;28;20179;-67
2023/09/17 12:31:58;;;;;;;10.50;6.22;;;22.00;69.60;;;;;;5051486;28;20202;-67
2023/09/17 12:34:25;;;;;;;7.32;5.60;;;22.00;68.60;;;;;;5052391;28;20199;-67
2023/09/17 12:36:50;;;;;;;6.80;5.85;;;22.00;68.70;;;;;;5023889;28;20232;-67
2023/09/17 12:39:16;;;;;;;8.02;5.75;;;22.00;68.70;;;;;;5012567;28;20225;-67
2023/09/17 12:41:42;;;;;;;7.13;6.00;;;22.00;68.60;;;;;;5012890;28;20255;-67
2023/09/17 12:44:12;;;;;;;7.75;5.63;;;22.10;68.60;;;;;;5011463;28;20204;-67
2023/09/17 12:46:37;;;;;;;6.22;5.65;;;22.10;68.50;;;;;;5012507;28;20191;-67
2023/09/17 12:49:03;;;;;;;7.13;5.93;;;22.00;68.50;;;;;;5012231;28;20172;-67